sensor_id;sensor_type;location;lat;lon;timestamp;pressure;altitude;pressure_sealevel;temperature
67822;BMP180;54434;50.096;20.082;2024-03-02T00:00:09;98277.80;;;6.30
67822;BMP180;54434;50.096;20.082;2024-03-02T00:03:25;98276.20;;;6.30
67822;BMP180;54434;50.096;20.082;2024-03-02T00:06:22;98273.60;;;6.30
67822;BMP180;54434;50.096;20.082;2024-03-02T00:09:18;98268.00;;;6.28
67822;BMP180;54434;50.096;20.082;2024-03-02T00:12:16;98261.80;;;6.20
67822;BMP180;54434;50.096;20.082;2024-03-02T00:15:41;98258.60;;;6.20
67822;BMP180;54434;50.096;20.082;2024-03-02T00:18:37;98253.00;;;6.20
67822;BMP180;54434;50.096;20.082;2024-03-02T00:21:33;98254.60;;;6.20
67822;BMP180;54434;50.096;20.082;2024-03-02T00:24:34;98265.20;;;6.20
67822;BMP180;54434;50.096;20.082;2024-03-02T00:27:28;98278.00;;;6.20
67822;BMP180;54434;50.096;20.082;2024-03-02T00:30:57;98271.60;;;6.12
67822;BMP180;54434;50.096;20.082;2024-03-02T00:33:52;98276.40;;;6.10
67822;BMP180;54434;50.096;20.082;2024-03-02T00:36:47;98269.20;;;6.10
67822;BMP180;54434;50.096;20.082;2024-03-02T00:39:41;98273.80;;;6.10
67822;BMP180;54434;50.096;20.082;2024-03-02T00:42:35;98271.80;;;6.10
67822;BMP180;54434;50.096;20.082;2024-03-02T00:45:29;98279.20;;;6.10
67822;BMP180;54434;50.096;20.082;2024-03-02T00:48:24;98278.40;;;6.10
67822;BMP180;54434;50.096;20.082;2024-03-02T00:51:18;98270.00;;;6.10
67822;BMP180;54434;50.096;20.082;2024-03-02T00:54:13;98269.20;;;6.10
67822;BMP180;54434;50.096;20.082;2024-03-02T00:57:12;98264.80;;;6.10
67822;BMP180;54434;50.096;20.082;2024-03-02T01:00:08;98269.20;;;6.10
67822;BMP180;54434;50.096;20.082;2024-03-02T01:03:05;98264.80;;;6.10
67822;BMP180;54434;50.096;20.082;2024-03-02T01:06:00;98262.40;;;6.10
67822;BMP180;54434;50.096;20.082;2024-03-02T01:08:54;98258.60;;;6.10
67822;BMP180;54434;50.096;20.082;2024-03-02T01:11:49;98259.60;;;6.10
67822;BMP180;54434;50.096;20.082;2024-03-02T01:14:43;98258.00;;;6.10
67822;BMP180;54434;50.096;20.082;2024-03-02T01:17:37;98254.20;;;6.10
67822;BMP180;54434;50.096;20.082;2024-03-02T01:20:31;98248.00;;;6.10
67822;BMP180;54434;50.096;20.082;2024-03-02T01:23:25;98246.40;;;6.10
67822;BMP180;54434;50.096;20.082;2024-03-02T01:26:19;98246.20;;;6.10
67822;BMP180;54434;50.096;20.082;2024-03-02T01:29:13;98246.40;;;6.10
67822;BMP180;54434;50.096;20.082;2024-03-02T01:32:08;98236.00;;;6.10
67822;BMP180;54434;50.096;20.082;2024-03-02T01:35:02;98233.80;;;6.14
67822;BMP180;54434;50.096;20.082;2024-03-02T01:37:55;98229.20;;;6.10
67822;BMP180;54434;50.096;20.082;2024-03-02T01:40:49;98231.20;;;6.16
67822;BMP180;54434;50.096;20.082;2024-03-02T01:43:44;98234.00;;;6.20
67822;BMP180;54434;50.096;20.082;2024-03-02T01:46:37;98230.40;;;6.20
67822;BMP180;54434;50.096;20.082;2024-03-02T01:49:32;98227.20;;;6.20
67822;BMP180;54434;50.096;20.082;2024-03-02T01:52:26;98226.40;;;6.20
67822;BMP180;54434;50.096;20.082;2024-03-02T01:55:20;98223.00;;;6.20
67822;BMP180;54434;50.096;20.082;2024-03-02T01:58:13;98218.20;;;6.20
67822;BMP180;54434;50.096;20.082;2024-03-02T02:01:07;98214.00;;;6.22
67822;BMP180;54434;50.096;20.082;2024-03-02T02:04:02;98213.20;;;6.30
67822;BMP180;54434;50.096;20.082;2024-03-02T02:06:59;98219.00;;;6.30
67822;BMP180;54434;50.096;20.082;2024-03-02T02:09:54;98218.80;;;6.34
67822;BMP180;54434;50.096;20.082;2024-03-02T02:12:48;98218.00;;;6.40
67822;BMP180;54434;50.096;20.082;2024-03-02T02:15:42;98215.60;;;6.40
67822;BMP180;54434;50.096;20.082;2024-03-02T02:18:36;98214.00;;;6.40
67822;BMP180;54434;50.096;20.082;2024-03-02T02:21:30;98213.00;;;6.40
67822;BMP180;54434;50.096;20.082;2024-03-02T02:24:24;98210.60;;;6.40
67822;BMP180;54434;50.096;20.082;2024-03-02T02:27:18;98215.40;;;6.40
67822;BMP180;54434;50.096;20.082;2024-03-02T02:30:14;98216.80;;;6.36
67822;BMP180;54434;50.096;20.082;2024-03-02T02:33:11;98212.40;;;6.30
67822;BMP180;54434;50.096;20.082;2024-03-02T02:36:06;98212.20;;;6.30
67822;BMP180;54434;50.096;20.082;2024-03-02T02:39:02;98208.20;;;6.30
67822;BMP180;54434;50.096;20.082;2024-03-02T02:41:56;98208.40;;;6.20
67822;BMP180;54434;50.096;20.082;2024-03-02T02:44:51;98207.20;;;6.20
67822;BMP180;54434;50.096;20.082;2024-03-02T02:47:45;98200.40;;;6.20
67822;BMP180;54434;50.096;20.082;2024-03-02T02:50:38;98204.40;;;6.14
67822;BMP180;54434;50.096;20.082;2024-03-02T02:53:32;98203.60;;;6.10
67822;BMP180;54434;50.096;20.082;2024-03-02T02:56:27;98204.40;;;6.10
67822;BMP180;54434;50.096;20.082;2024-03-02T02:59:21;98209.40;;;6.10
67822;BMP180;54434;50.096;20.082;2024-03-02T03:02:15;98206.40;;;6.04
67822;BMP180;54434;50.096;20.082;2024-03-02T03:05:10;98207.20;;;6.00
67822;BMP180;54434;50.096;20.082;2024-03-02T03:08:04;98205.00;;;6.00
67822;BMP180;54434;50.096;20.082;2024-03-02T03:10:58;98204.60;;;5.96
67822;BMP180;54434;50.096;20.082;2024-03-02T03:13:52;98209.80;;;5.92
67822;BMP180;54434;50.096;20.082;2024-03-02T03:16:49;98217.20;;;5.90
67822;BMP180;54434;50.096;20.082;2024-03-02T03:19:42;98215.20;;;5.90
67822;BMP180;54434;50.096;20.082;2024-03-02T03:22:36;98210.80;;;5.90
67822;BMP180;54434;50.096;20.082;2024-03-02T03:25:30;98208.60;;;5.90
67822;BMP180;54434;50.096;20.082;2024-03-02T03:28:26;98211.40;;;5.90
67822;BMP180;54434;50.096;20.082;2024-03-02T03:31:20;98207.80;;;5.90
67822;BMP180;54434;50.096;20.082;2024-03-02T03:34:14;98202.00;;;5.90
67822;BMP180;54434;50.096;20.082;2024-03-02T03:37:08;98197.40;;;5.80
67822;BMP180;54434;50.096;20.082;2024-03-02T03:40:02;98199.20;;;5.80
67822;BMP180;54434;50.096;20.082;2024-03-02T03:42:59;98189.80;;;5.80
67822;BMP180;54434;50.096;20.082;2024-03-02T03:45:53;98188.60;;;5.80
67822;BMP180;54434;50.096;20.082;2024-03-02T03:48:47;98189.80;;;5.80
67822;BMP180;54434;50.096;20.082;2024-03-02T03:51:41;98194.00;;;5.80
67822;BMP180;54434;50.096;20.082;2024-03-02T03:54:35;98194.60;;;5.80
67822;BMP180;54434;50.096;20.082;2024-03-02T03:57:31;98192.60;;;5.80
67822;BMP180;54434;50.096;20.082;2024-03-02T04:00:25;98193.80;;;5.80
67822;BMP180;54434;50.096;20.082;2024-03-02T04:03:19;98195.00;;;5.80
67822;BMP180;54434;50.096;20.082;2024-03-02T04:06:13;98195.40;;;5.80
67822;BMP180;54434;50.096;20.082;2024-03-02T04:09:08;98193.80;;;5.70
67822;BMP180;54434;50.096;20.082;2024-03-02T04:12:03;98188.20;;;5.70
67822;BMP180;54434;50.096;20.082;2024-03-02T04:14:56;98189.60;;;5.70
67822;BMP180;54434;50.096;20.082;2024-03-02T04:17:50;98193.60;;;5.72
67822;BMP180;54434;50.096;20.082;2024-03-02T04:20:44;98192.20;;;5.70
67822;BMP180;54434;50.096;20.082;2024-03-02T04:23:38;98196.60;;;5.76
67822;BMP180;54434;50.096;20.082;2024-03-02T04:26:32;98195.00;;;5.80
67822;BMP180;54434;50.096;20.082;2024-03-02T04:29:26;98196.80;;;5.78
67822;BMP180;54434;50.096;20.082;2024-03-02T04:32:20;98197.40;;;5.80
67822;BMP180;54434;50.096;20.082;2024-03-02T04:35:14;98199.40;;;5.80
67822;BMP180;54434;50.096;20.082;2024-03-02T04:38:08;98194.80;;;5.80
67822;BMP180;54434;50.096;20.082;2024-03-02T04:41:01;98191.80;;;5.80
67822;BMP180;54434;50.096;20.082;2024-03-02T04:43:55;98193.40;;;5.80
67822;BMP180;54434;50.096;20.082;2024-03-02T04:46:49;98188.00;;;5.80
67822;BMP180;54434;50.096;20.082;2024-03-02T04:49:44;98184.40;;;5.80
67822;BMP180;54434;50.096;20.082;2024-03-02T04:52:40;98186.80;;;5.80
67822;BMP180;54434;50.096;20.082;2024-03-02T04:55:36;98183.60;;;5.80
67822;BMP180;54434;50.096;20.082;2024-03-02T04:58:56;98181.40;;;5.80
67822;BMP180;54434;50.096;20.082;2024-03-02T05:01:50;98180.80;;;5.80
67822;BMP180;54434;50.096;20.082;2024-03-02T05:04:45;98179.60;;;5.80
67822;BMP180;54434;50.096;20.082;2024-03-02T05:07:40;98187.20;;;5.80
67822;BMP180;54434;50.096;20.082;2024-03-02T05:10:36;98194.80;;;5.80
67822;BMP180;54434;50.096;20.082;2024-03-02T05:13:30;98197.80;;;5.80
67822;BMP180;54434;50.096;20.082;2024-03-02T05:16:24;98198.80;;;5.80
67822;BMP180;54434;50.096;20.082;2024-03-02T05:19:18;98203.00;;;5.88
67822;BMP180;54434;50.096;20.082;2024-03-02T05:22:11;98207.60;;;5.90
67822;BMP180;54434;50.096;20.082;2024-03-02T05:25:07;98209.20;;;5.90
67822;BMP180;54434;50.096;20.082;2024-03-02T05:28:01;98209.20;;;5.94
67822;BMP180;54434;50.096;20.082;2024-03-02T05:30:55;98215.40;;;6.00
67822;BMP180;54434;50.096;20.082;2024-03-02T05:33:49;98222.20;;;6.00
67822;BMP180;54434;50.096;20.082;2024-03-02T05:36:49;98223.00;;;6.00
67822;BMP180;54434;50.096;20.082;2024-03-02T05:39:43;98225.80;;;6.08
67822;BMP180;54434;50.096;20.082;2024-03-02T05:42:37;98233.40;;;6.10
67822;BMP180;54434;50.096;20.082;2024-03-02T05:45:31;98238.20;;;6.10
67822;BMP180;54434;50.096;20.082;2024-03-02T05:48:25;98239.60;;;6.20
67822;BMP180;54434;50.096;20.082;2024-03-02T05:51:18;98237.20;;;6.20
67822;BMP180;54434;50.096;20.082;2024-03-02T05:54:13;98235.80;;;6.20
67822;BMP180;54434;50.096;20.082;2024-03-02T05:57:07;98231.20;;;6.20
67822;BMP180;54434;50.096;20.082;2024-03-02T06:00:25;98224.60;;;6.26
67822;BMP180;54434;50.096;20.082;2024-03-02T06:03:19;98222.60;;;6.26
67822;BMP180;54434;50.096;20.082;2024-03-02T06:06:12;98233.20;;;6.22
67822;BMP180;54434;50.096;20.082;2024-03-02T06:09:07;98231.20;;;6.24
67822;BMP180;54434;50.096;20.082;2024-03-02T06:12:01;98236.80;;;6.22
67822;BMP180;54434;50.096;20.082;2024-03-02T06:14:56;98242.20;;;6.30
67822;BMP180;54434;50.096;20.082;2024-03-02T06:17:50;98250.60;;;6.30
67822;BMP180;54434;50.096;20.082;2024-03-02T06:20:44;98252.00;;;6.30
67822;BMP180;54434;50.096;20.082;2024-03-02T06:23:37;98258.60;;;6.32
67822;BMP180;54434;50.096;20.082;2024-03-02T06:26:31;98259.20;;;6.40
67822;BMP180;54434;50.096;20.082;2024-03-02T06:29:25;98255.00;;;6.40
67822;BMP180;54434;50.096;20.082;2024-03-02T06:32:19;98249.80;;;6.40
67822;BMP180;54434;50.096;20.082;2024-03-02T06:35:13;98244.20;;;6.40
67822;BMP180;54434;50.096;20.082;2024-03-02T06:38:07;98252.20;;;6.50
67822;BMP180;54434;50.096;20.082;2024-03-02T06:41:00;98253.00;;;6.52
67822;BMP180;54434;50.096;20.082;2024-03-02T06:43:54;98245.00;;;6.60
67822;BMP180;54434;50.096;20.082;2024-03-02T06:46:52;98242.80;;;6.62
67822;BMP180;54434;50.096;20.082;2024-03-02T06:49:46;98249.40;;;6.70
67822;BMP180;54434;50.096;20.082;2024-03-02T06:52:39;98252.20;;;6.78
67822;BMP180;54434;50.096;20.082;2024-03-02T06:55:33;98250.40;;;6.80
67822;BMP180;54434;50.096;20.082;2024-03-02T06:58:27;98258.20;;;6.88
67822;BMP180;54434;50.096;20.082;2024-03-02T07:01:20;98255.40;;;6.90
67822;BMP180;54434;50.096;20.082;2024-03-02T07:04:17;98250.60;;;7.00
67822;BMP180;54434;50.096;20.082;2024-03-02T07:07:11;98259.00;;;7.00
67822;BMP180;54434;50.096;20.082;2024-03-02T07:10:06;98256.60;;;7.10
67822;BMP180;54434;50.096;20.082;2024-03-02T07:13:01;98261.40;;;7.10
67822;BMP180;54434;50.096;20.082;2024-03-02T07:15:55;98253.00;;;7.20
67822;BMP180;54434;50.096;20.082;2024-03-02T07:19:15;98265.60;;;7.20
67822;BMP180;54434;50.096;20.082;2024-03-02T07:22:10;98269.40;;;7.20
67822;BMP180;54434;50.096;20.082;2024-03-02T07:25:05;98270.40;;;7.30
67822;BMP180;54434;50.096;20.082;2024-03-02T07:28:20;98264.80;;;7.30
67822;BMP180;54434;50.096;20.082;2024-03-02T07:31:17;98269.20;;;7.40
67822;BMP180;54434;50.096;20.082;2024-03-02T07:34:11;98279.20;;;7.40
67822;BMP180;54434;50.096;20.082;2024-03-02T07:37:05;98288.00;;;7.50
67822;BMP180;54434;50.096;20.082;2024-03-02T07:39:59;98280.80;;;7.58
67822;BMP180;54434;50.096;20.082;2024-03-02T07:42:53;98271.40;;;7.60
67822;BMP180;54434;50.096;20.082;2024-03-02T07:45:49;98281.40;;;7.70
67822;BMP180;54434;50.096;20.082;2024-03-02T07:48:45;98295.80;;;7.80
67822;BMP180;54434;50.096;20.082;2024-03-02T07:51:40;98295.40;;;7.90
67822;BMP180;54434;50.096;20.082;2024-03-02T07:54:36;98293.20;;;8.00
67822;BMP180;54434;50.096;20.082;2024-03-02T07:57:31;98292.40;;;8.10
67822;BMP180;54434;50.096;20.082;2024-03-02T08:00:26;98299.80;;;8.20
67822;BMP180;54434;50.096;20.082;2024-03-02T08:03:20;98300.00;;;8.20
67822;BMP180;54434;50.096;20.082;2024-03-02T08:06:13;98303.60;;;8.30
67822;BMP180;54434;50.096;20.082;2024-03-02T08:09:08;98306.20;;;8.40
67822;BMP180;54434;50.096;20.082;2024-03-02T08:12:02;98307.40;;;8.50
67822;BMP180;54434;50.096;20.082;2024-03-02T08:14:56;98305.80;;;8.50
67822;BMP180;54434;50.096;20.082;2024-03-02T08:17:50;98306.00;;;8.50
67822;BMP180;54434;50.096;20.082;2024-03-02T08:20:44;98306.40;;;8.60
67822;BMP180;54434;50.096;20.082;2024-03-02T08:23:38;98301.40;;;8.60
67822;BMP180;54434;50.096;20.082;2024-03-02T08:26:36;98304.00;;;8.64
67822;BMP180;54434;50.096;20.082;2024-03-02T08:29:30;98303.20;;;8.70
67822;BMP180;54434;50.096;20.082;2024-03-02T08:32:24;98308.60;;;8.78
67822;BMP180;54434;50.096;20.082;2024-03-02T08:35:18;98305.20;;;8.80
67822;BMP180;54434;50.096;20.082;2024-03-02T08:38:12;98309.40;;;8.80
67822;BMP180;54434;50.096;20.082;2024-03-02T08:41:07;98302.60;;;8.80
67822;BMP180;54434;50.096;20.082;2024-03-02T08:44:02;98307.20;;;8.90
67822;BMP180;54434;50.096;20.082;2024-03-02T08:46:56;98308.00;;;8.90
67822;BMP180;54434;50.096;20.082;2024-03-02T08:49:52;98308.60;;;9.00
67822;BMP180;54434;50.096;20.082;2024-03-02T08:52:48;98310.80;;;9.00
67822;BMP180;54434;50.096;20.082;2024-03-02T08:55:43;98308.00;;;9.00
67822;BMP180;54434;50.096;20.082;2024-03-02T08:58:36;98312.20;;;9.10
67822;BMP180;54434;50.096;20.082;2024-03-02T09:01:31;98310.80;;;9.10
67822;BMP180;54434;50.096;20.082;2024-03-02T09:04:25;98318.60;;;9.20
67822;BMP180;54434;50.096;20.082;2024-03-02T09:07:21;98320.00;;;9.20
67822;BMP180;54434;50.096;20.082;2024-03-02T09:10:15;98320.80;;;9.20
67822;BMP180;54434;50.096;20.082;2024-03-02T09:13:08;98320.60;;;9.20
67822;BMP180;54434;50.096;20.082;2024-03-02T09:16:03;98325.40;;;9.20
67822;BMP180;54434;50.096;20.082;2024-03-02T09:18:57;98329.40;;;9.12
67822;BMP180;54434;50.096;20.082;2024-03-02T09:21:51;98332.60;;;9.20
67822;BMP180;54434;50.096;20.082;2024-03-02T09:24:45;98338.40;;;9.20
67822;BMP180;54434;50.096;20.082;2024-03-02T09:27:40;98339.00;;;9.20
67822;BMP180;54434;50.096;20.082;2024-03-02T09:30:34;98343.20;;;9.20
67822;BMP180;54434;50.096;20.082;2024-03-02T09:33:28;98349.20;;;9.20
67822;BMP180;54434;50.096;20.082;2024-03-02T09:36:22;98345.40;;;9.20
67822;BMP180;54434;50.096;20.082;2024-03-02T09:39:16;98347.60;;;9.20
67822;BMP180;54434;50.096;20.082;2024-03-02T09:42:10;98347.60;;;9.18
67822;BMP180;54434;50.096;20.082;2024-03-02T09:45:06;98349.60;;;9.10
67822;BMP180;54434;50.096;20.082;2024-03-02T09:48:01;98352.60;;;9.10
67822;BMP180;54434;50.096;20.082;2024-03-02T09:50:55;98355.40;;;9.10
67822;BMP180;54434;50.096;20.082;2024-03-02T09:53:50;98352.60;;;9.10
67822;BMP180;54434;50.096;20.082;2024-03-02T09:56:47;98358.20;;;9.10
67822;BMP180;54434;50.096;20.082;2024-03-02T09:59:41;98357.60;;;9.10
67822;BMP180;54434;50.096;20.082;2024-03-02T10:02:35;98362.20;;;9.10
67822;BMP180;54434;50.096;20.082;2024-03-02T10:05:29;98361.40;;;9.20
67822;BMP180;54434;50.096;20.082;2024-03-02T10:08:22;98365.40;;;9.30
67822;BMP180;54434;50.096;20.082;2024-03-02T10:11:29;98366.00;;;9.30
67822;BMP180;54434;50.096;20.082;2024-03-02T10:14:25;98356.60;;;9.40
67822;BMP180;54434;50.096;20.082;2024-03-02T10:17:20;98353.20;;;9.50
67822;BMP180;54434;50.096;20.082;2024-03-02T10:20:31;98354.20;;;9.60
67822;BMP180;54434;50.096;20.082;2024-03-02T10:23:25;98355.40;;;9.70
67822;BMP180;54434;50.096;20.082;2024-03-02T10:26:21;98346.00;;;9.80
67822;BMP180;54434;50.096;20.082;2024-03-02T10:29:16;98347.20;;;9.90
67822;BMP180;54434;50.096;20.082;2024-03-02T10:32:12;98349.80;;;10.00
67822;BMP180;54434;50.096;20.082;2024-03-02T10:35:08;98349.20;;;10.10
67822;BMP180;54434;50.096;20.082;2024-03-02T10:38:03;98345.60;;;10.14
67822;BMP180;54434;50.096;20.082;2024-03-02T10:40:57;98340.40;;;10.20
67822;BMP180;54434;50.096;20.082;2024-03-02T10:43:53;98340.00;;;10.30
67822;BMP180;54434;50.096;20.082;2024-03-02T10:46:53;98336.20;;;10.40
67822;BMP180;54434;50.096;20.082;2024-03-02T10:49:51;98336.60;;;10.56
67822;BMP180;54434;50.096;20.082;2024-03-02T10:52:46;98334.20;;;10.60
67822;BMP180;54434;50.096;20.082;2024-03-02T10:55:41;98327.80;;;10.70
67822;BMP180;54434;50.096;20.082;2024-03-02T10:58:38;98327.20;;;10.80
67822;BMP180;54434;50.096;20.082;2024-03-02T11:01:35;98330.20;;;10.90
67822;BMP180;54434;50.096;20.082;2024-03-02T11:04:33;98334.80;;;11.00
67822;BMP180;54434;50.096;20.082;2024-03-02T11:07:29;98343.20;;;11.12
67822;BMP180;54434;50.096;20.082;2024-03-02T11:10:25;98341.80;;;11.20
67822;BMP180;54434;50.096;20.082;2024-03-02T11:13:24;98338.20;;;11.30
67822;BMP180;54434;50.096;20.082;2024-03-02T11:16:32;98340.00;;;11.40
67822;BMP180;54434;50.096;20.082;2024-03-02T11:19:28;98334.60;;;11.40
67822;BMP180;54434;50.096;20.082;2024-03-02T11:22:23;98335.60;;;11.40
67822;BMP180;54434;50.096;20.082;2024-03-02T11:25:28;98337.00;;;11.50
67822;BMP180;54434;50.096;20.082;2024-03-02T11:28:37;98332.20;;;11.50
67822;BMP180;54434;50.096;20.082;2024-03-02T11:32:14;98331.40;;;11.40
67822;BMP180;54434;50.096;20.082;2024-03-02T11:35:09;98325.00;;;11.30
67822;BMP180;54434;50.096;20.082;2024-03-02T11:38:04;98325.40;;;11.30
67822;BMP180;54434;50.096;20.082;2024-03-02T11:41:01;98323.60;;;11.30
67822;BMP180;54434;50.096;20.082;2024-03-02T11:43:55;98318.20;;;11.30
67822;BMP180;54434;50.096;20.082;2024-03-02T11:46:53;98312.80;;;11.40
67822;BMP180;54434;50.096;20.082;2024-03-02T11:49:50;98306.20;;;11.48
67822;BMP180;54434;50.096;20.082;2024-03-02T11:52:45;98305.60;;;11.50
67822;BMP180;54434;50.096;20.082;2024-03-02T11:55:40;98303.20;;;11.60
67822;BMP180;54434;50.096;20.082;2024-03-02T11:58:40;98310.40;;;11.80
67822;BMP180;54434;50.096;20.082;2024-03-02T12:01:37;98308.80;;;11.80
67822;BMP180;54434;50.096;20.082;2024-03-02T12:04:32;98318.00;;;11.90
67822;BMP180;54434;50.096;20.082;2024-03-02T12:07:26;98314.60;;;12.00
67822;BMP180;54434;50.096;20.082;2024-03-02T12:10:20;98311.80;;;12.10
67822;BMP180;54434;50.096;20.082;2024-03-02T12:13:14;98305.80;;;12.20
67822;BMP180;54434;50.096;20.082;2024-03-02T12:16:09;98299.80;;;12.20
67822;BMP180;54434;50.096;20.082;2024-03-02T12:19:02;98306.60;;;12.30
67822;BMP180;54434;50.096;20.082;2024-03-02T12:21:57;98311.40;;;12.40
67822;BMP180;54434;50.096;20.082;2024-03-02T12:24:51;98318.00;;;12.50
67822;BMP180;54434;50.096;20.082;2024-03-02T12:27:45;98309.60;;;12.50
67822;BMP180;54434;50.096;20.082;2024-03-02T12:30:40;98308.40;;;12.50
67822;BMP180;54434;50.096;20.082;2024-03-02T12:33:34;98312.80;;;12.66
67822;BMP180;54434;50.096;20.082;2024-03-02T12:36:28;98315.40;;;12.84
67822;BMP180;54434;50.096;20.082;2024-03-02T12:39:22;98312.80;;;12.98
67822;BMP180;54434;50.096;20.082;2024-03-02T12:42:15;98307.40;;;13.20
67822;BMP180;54434;50.096;20.082;2024-03-02T12:45:10;98309.40;;;13.30
67822;BMP180;54434;50.096;20.082;2024-03-02T12:48:07;98308.60;;;13.40
67822;BMP180;54434;50.096;20.082;2024-03-02T12:51:01;98303.00;;;13.50
67822;BMP180;54434;50.096;20.082;2024-03-02T12:53:58;98301.20;;;13.60
67822;BMP180;54434;50.096;20.082;2024-03-02T12:56:52;98295.20;;;13.70
67822;BMP180;54434;50.096;20.082;2024-03-02T12:59:50;98305.60;;;13.80
67822;BMP180;54434;50.096;20.082;2024-03-02T13:02:45;98304.40;;;13.80
67822;BMP180;54434;50.096;20.082;2024-03-02T13:05:40;98298.80;;;13.90
67822;BMP180;54434;50.096;20.082;2024-03-02T13:08:34;98297.60;;;14.00
67822;BMP180;54434;50.096;20.082;2024-03-02T13:11:28;98298.00;;;14.00
67822;BMP180;54434;50.096;20.082;2024-03-02T13:14:24;98300.20;;;14.10
67822;BMP180;54434;50.096;20.082;2024-03-02T13:17:21;98296.00;;;14.00
67822;BMP180;54434;50.096;20.082;2024-03-02T13:20:16;98293.60;;;14.04
67822;BMP180;54434;50.096;20.082;2024-03-02T13:23:12;98294.40;;;14.04
67822;BMP180;54434;50.096;20.082;2024-03-02T13:26:06;98295.60;;;14.00
67822;BMP180;54434;50.096;20.082;2024-03-02T13:29:02;98287.60;;;13.86
67822;BMP180;54434;50.096;20.082;2024-03-02T13:31:56;98289.60;;;13.80
67822;BMP180;54434;50.096;20.082;2024-03-02T13:34:50;98291.60;;;13.70
67822;BMP180;54434;50.096;20.082;2024-03-02T13:37:44;98290.80;;;13.66
67822;BMP180;54434;50.096;20.082;2024-03-02T13:40:38;98289.80;;;13.70
67822;BMP180;54434;50.096;20.082;2024-03-02T13:43:35;98291.20;;;13.62
67822;BMP180;54434;50.096;20.082;2024-03-02T13:46:31;98293.40;;;13.60
67822;BMP180;54434;50.096;20.082;2024-03-02T13:49:25;98290.40;;;13.60
67822;BMP180;54434;50.096;20.082;2024-03-02T13:55:59;98298.60;;;13.40
67822;BMP180;54434;50.096;20.082;2024-03-02T13:58:53;98298.20;;;13.40
67822;BMP180;54434;50.096;20.082;2024-03-02T14:01:50;98297.80;;;13.40
67822;BMP180;54434;50.096;20.082;2024-03-02T14:04:44;98297.00;;;13.40
67822;BMP180;54434;50.096;20.082;2024-03-02T14:07:45;98293.60;;;13.40
67822;BMP180;54434;50.096;20.082;2024-03-02T14:10:42;98297.00;;;13.40
67822;BMP180;54434;50.096;20.082;2024-03-02T14:13:36;98294.40;;;13.40
67822;BMP180;54434;50.096;20.082;2024-03-02T14:16:30;98298.00;;;13.44
67822;BMP180;54434;50.096;20.082;2024-03-02T14:19:23;98296.40;;;13.50
67822;BMP180;54434;50.096;20.082;2024-03-02T14:22:18;98295.40;;;13.50
67822;BMP180;54434;50.096;20.082;2024-03-02T14:25:12;98303.20;;;13.40
67822;BMP180;54434;50.096;20.082;2024-03-02T14:28:07;98303.00;;;13.42
67822;BMP180;54434;50.096;20.082;2024-03-02T14:31:21;98303.40;;;13.40
67822;BMP180;54434;50.096;20.082;2024-03-02T14:34:14;98302.00;;;13.48
67822;BMP180;54434;50.096;20.082;2024-03-02T14:37:09;98306.40;;;13.44
67822;BMP180;54434;50.096;20.082;2024-03-02T14:40:03;98299.00;;;13.40
67822;BMP180;54434;50.096;20.082;2024-03-02T14:42:58;98298.00;;;13.40
67822;BMP180;54434;50.096;20.082;2024-03-02T14:45:52;98296.00;;;13.30
67822;BMP180;54434;50.096;20.082;2024-03-02T14:48:47;98291.60;;;13.40
67822;BMP180;54434;50.096;20.082;2024-03-02T14:51:40;98296.20;;;13.30
67822;BMP180;54434;50.096;20.082;2024-03-02T14:54:34;98292.40;;;13.30
67822;BMP180;54434;50.096;20.082;2024-03-02T14:57:29;98292.00;;;13.22
67822;BMP180;54434;50.096;20.082;2024-03-02T15:00:23;98286.60;;;13.20
67822;BMP180;54434;50.096;20.082;2024-03-02T15:03:16;98290.00;;;13.20
67822;BMP180;54434;50.096;20.082;2024-03-02T15:06:11;98283.00;;;13.14
67822;BMP180;54434;50.096;20.082;2024-03-02T15:09:05;98286.20;;;13.10
67822;BMP180;54434;50.096;20.082;2024-03-02T15:11:58;98276.20;;;13.00
67822;BMP180;54434;50.096;20.082;2024-03-02T15:14:52;98276.00;;;12.96
67822;BMP180;54434;50.096;20.082;2024-03-02T15:17:47;98276.80;;;12.80
67822;BMP180;54434;50.096;20.082;2024-03-02T15:20:41;98278.80;;;12.80
67822;BMP180;54434;50.096;20.082;2024-03-02T15:23:35;98277.40;;;12.70
67822;BMP180;54434;50.096;20.082;2024-03-02T15:26:29;98267.80;;;12.60
67822;BMP180;54434;50.096;20.082;2024-03-02T15:29:23;98268.80;;;12.50
67822;BMP180;54434;50.096;20.082;2024-03-02T15:32:22;98266.40;;;12.40
67822;BMP180;54434;50.096;20.082;2024-03-02T15:35:16;98271.00;;;12.36
67822;BMP180;54434;50.096;20.082;2024-03-02T15:38:10;98267.40;;;12.30
67822;BMP180;54434;50.096;20.082;2024-03-02T15:41:23;98266.20;;;12.20
67822;BMP180;54434;50.096;20.082;2024-03-02T15:44:17;98264.20;;;12.10
67822;BMP180;54434;50.096;20.082;2024-03-02T15:47:11;98264.80;;;12.00
67822;BMP180;54434;50.096;20.082;2024-03-02T15:50:06;98264.40;;;12.00
67822;BMP180;54434;50.096;20.082;2024-03-02T15:53:00;98261.60;;;11.90
67822;BMP180;54434;50.096;20.082;2024-03-02T15:55:56;98260.80;;;11.90
67822;BMP180;54434;50.096;20.082;2024-03-02T15:58:50;98262.80;;;11.80
67822;BMP180;54434;50.096;20.082;2024-03-02T16:01:44;98264.60;;;11.70
67822;BMP180;54434;50.096;20.082;2024-03-02T16:04:38;98269.80;;;11.64
67822;BMP180;54434;50.096;20.082;2024-03-02T16:07:32;98269.20;;;11.60
67822;BMP180;54434;50.096;20.082;2024-03-02T16:10:27;98269.40;;;11.50
67822;BMP180;54434;50.096;20.082;2024-03-02T16:13:20;98267.20;;;11.50
67822;BMP180;54434;50.096;20.082;2024-03-02T16:16:15;98270.40;;;11.44
67822;BMP180;54434;50.096;20.082;2024-03-02T16:19:08;98266.20;;;11.40
67822;BMP180;54434;50.096;20.082;2024-03-02T16:22:16;98264.20;;;11.30
67822;BMP180;54434;50.096;20.082;2024-03-02T16:25:11;98267.20;;;11.30
67822;BMP180;54434;50.096;20.082;2024-03-02T16:28:05;98268.00;;;11.32
67822;BMP180;54434;50.096;20.082;2024-03-02T16:30:59;98268.20;;;11.30
67822;BMP180;54434;50.096;20.082;2024-03-02T16:33:53;98275.80;;;11.28
67822;BMP180;54434;50.096;20.082;2024-03-02T16:36:47;98275.20;;;11.20
67822;BMP180;54434;50.096;20.082;2024-03-02T16:39:41;98274.20;;;11.10
67822;BMP180;54434;50.096;20.082;2024-03-02T16:42:37;98273.00;;;11.00
67822;BMP180;54434;50.096;20.082;2024-03-02T16:45:31;98277.00;;;10.90
67822;BMP180;54434;50.096;20.082;2024-03-02T16:48:25;98276.80;;;10.82